createdAt,value
2017-01-03T00:09:30.357Z,0.5
2017-01-03T00:19:42.760Z,0.4
2017-01-03T00:29:55.138Z,0.3
2017-01-03T00:40:07.541Z,0.3
2017-01-03T00:50:20.013Z,0.1
2017-01-03T01:00:32.417Z,0.1
2017-01-03T01:10:44.895Z,0
2017-01-03T01:20:57.321Z,-0.1
2017-01-03T01:31:09.817Z,-0.1
2017-01-03T01:41:22.289Z,-0.1
2017-01-03T01:51:34.716Z,0
2017-01-03T02:01:47.054Z,-0.1
2017-01-03T02:11:59.438Z,-0.1
2017-01-03T02:22:11.826Z,-0.1
2017-01-03T02:32:24.248Z,-0.1
2017-01-03T02:42:36.658Z,0
2017-01-03T02:52:49.049Z,0
2017-01-03T03:03:01.383Z,0
2017-01-03T03:13:13.755Z,0.2
2017-01-03T03:23:26.113Z,0.2
2017-01-03T03:33:38.541Z,0.4
2017-01-03T03:43:50.947Z,0.5
2017-01-03T03:54:03.307Z,0.6
2017-01-03T04:04:15.685Z,0.6
2017-01-03T04:14:28.004Z,0.8
2017-01-03T04:24:40.262Z,0.9
2017-01-03T04:34:52.515Z,1
2017-01-03T04:45:04.836Z,1.1
2017-01-03T04:55:17.180Z,1.1
2017-01-03T05:05:29.344Z,1.2
2017-01-03T05:15:41.483Z,1.3
2017-01-03T05:25:53.642Z,1.4
2017-01-03T05:36:05.754Z,1.5
2017-01-03T05:46:17.861Z,1.5
2017-01-03T05:56:29.972Z,1.7
2017-01-03T06:06:41.994Z,1.7
2017-01-03T06:16:54.104Z,1.8
2017-01-03T06:27:06.143Z,1.8
2017-01-03T06:37:18.190Z,1.9
2017-01-03T06:47:30.204Z,2
2017-01-03T06:57:42.262Z,2
2017-01-03T07:07:54.291Z,2
2017-01-03T07:18:06.322Z,2.1
2017-01-03T07:28:18.323Z,2.1
2017-01-03T07:38:30.282Z,2.3
2017-01-03T07:48:42.263Z,2.4
2017-01-03T07:58:54.144Z,2.4
2017-01-03T08:09:06.035Z,2.5
2017-01-03T08:19:17.900Z,2.4
2017-01-03T08:29:29.790Z,2.6
2017-01-03T08:39:41.626Z,2.6
2017-01-03T08:49:53.423Z,2.7
2017-01-03T09:00:05.208Z,2.6
2017-01-03T09:10:17.033Z,2.6
2017-01-03T09:20:28.860Z,2.6
2017-01-03T09:30:40.673Z,2.5
2017-01-03T09:40:52.396Z,2.6
2017-01-03T09:51:04.175Z,2.6
2017-01-03T10:01:15.982Z,2.7
2017-01-03T10:11:27.691Z,2.7
2017-01-03T10:21:39.390Z,2.7
2017-01-03T10:31:51.050Z,2.7
2017-01-03T10:42:02.679Z,2.7
2017-01-03T10:52:14.310Z,2.8
2017-01-03T11:02:25.872Z,2.8
2017-01-03T11:12:37.431Z,3
2017-01-03T11:22:49.016Z,2.7
2017-01-03T11:43:11.888Z,2.9
2017-01-03T11:53:23.176Z,2.9
2017-01-03T12:03:34.440Z,3
2017-01-03T12:13:45.752Z,2.9
2017-01-03T12:23:57.216Z,2.9
2017-01-03T12:34:08.738Z,2.8
2017-01-03T12:44:20.303Z,2.8
2017-01-03T12:54:31.845Z,3
2017-01-03T13:04:43.361Z,3
2017-01-03T13:14:54.851Z,3
2017-01-03T13:25:06.431Z,3.1
2017-01-03T13:35:17.977Z,3.1
2017-01-03T13:45:29.570Z,3
2017-01-03T13:55:41.161Z,2.9
2017-01-03T14:05:52.801Z,3.1
2017-01-03T14:16:04.495Z,3
2017-01-03T14:26:16.155Z,3
2017-01-03T14:36:27.833Z,3
2017-01-03T14:46:39.543Z,3
2017-01-03T14:56:51.314Z,2.8
2017-01-03T15:07:03.060Z,2.8
2017-01-03T15:17:14.793Z,2.9
2017-01-03T15:27:26.592Z,2.9
2017-01-03T15:37:38.446Z,3
2017-01-03T15:47:50.244Z,3
2017-01-03T15:58:02.177Z,2.9
2017-01-03T16:08:14.015Z,3
2017-01-03T16:18:25.820Z,3
2017-01-03T16:28:37.651Z,3
2017-01-03T16:38:49.460Z,2.8
2017-01-03T16:49:01.269Z,2.8
2017-01-03T16:59:13.018Z,2.9
2017-01-03T17:09:24.820Z,3.1
2017-01-03T17:19:36.591Z,3.1
2017-01-03T17:29:48.375Z,3.1
2017-01-03T17:40:00.162Z,3
2017-01-03T17:50:11.963Z,3
2017-01-03T18:00:23.789Z,3
2017-01-03T18:10:35.658Z,3
2017-01-03T18:20:47.493Z,3
2017-01-03T18:30:59.272Z,3
2017-01-03T18:41:11.162Z,3
2017-01-03T18:51:23.026Z,3.1
2017-01-03T19:01:34.859Z,3.2
2017-01-03T19:11:46.674Z,3.3
2017-01-03T19:21:58.526Z,3.4
2017-01-03T19:32:10.300Z,3.5
2017-01-03T19:42:22.075Z,3.5
2017-01-03T19:52:33.828Z,3.7
2017-01-03T20:02:45.563Z,3.8
2017-01-03T20:12:57.279Z,3.9
2017-01-03T20:23:08.989Z,4.1
2017-01-03T20:33:20.727Z,4.1
2017-01-03T20:43:32.446Z,4.1
2017-01-03T20:53:44.067Z,4.2
2017-01-03T21:03:55.694Z,4.3
2017-01-03T21:14:07.264Z,4.4
2017-01-03T21:24:18.869Z,4.4
2017-01-03T21:34:30.501Z,4.3
2017-01-03T21:44:42.104Z,4.3
2017-01-03T21:54:53.754Z,4.1
2017-01-03T22:05:05.382Z,4.2
2017-01-03T22:15:17.056Z,4
2017-01-03T22:25:28.703Z,4.2
2017-01-03T22:35:40.355Z,4.1
2017-01-03T22:45:51.968Z,4.1
2017-01-03T22:56:03.564Z,4.1
2017-01-03T23:06:15.222Z,4.1
2017-01-03T23:16:26.786Z,4.1
2017-01-03T23:26:38.295Z,4.1
2017-01-03T23:36:49.835Z,4.2
2017-01-03T23:47:01.355Z,4.2
2017-01-03T23:57:12.872Z,4.1
